createdAt,value
2018-10-19T00:02:15.753Z,68.63
2018-10-19T00:04:43.936Z,65.63
2018-10-19T00:07:12.249Z,66.97
2018-10-19T00:09:40.634Z,78.07
2018-10-19T00:12:09.310Z,75.90
2018-10-19T00:14:37.766Z,92.67
2018-10-19T00:17:06.413Z,73.77
2018-10-19T00:19:34.774Z,84.00
2018-10-19T00:22:02.865Z,79.33
2018-10-19T00:24:31.375Z,63.97
2018-10-19T00:26:59.982Z,64.00
2018-10-19T00:29:28.182Z,60.13
2018-10-19T00:31:56.430Z,60.57
2018-10-19T00:34:24.924Z,59.53
2018-10-19T00:36:53.494Z,55.37
2018-10-19T00:39:21.738Z,75.10
2018-10-19T00:41:50.064Z,79.80
2018-10-19T00:44:18.519Z,75.40
2018-10-19T00:46:46.815Z,68.93
2018-10-19T00:49:15.231Z,68.40
2018-10-19T00:51:43.691Z,104.00
2018-10-19T00:54:12.278Z,74.60
2018-10-19T00:56:40.485Z,64.30
2018-10-19T00:59:08.602Z,76.50
2018-10-19T01:01:37.148Z,76.50
2018-10-19T01:04:06.089Z,66.33
2018-10-19T01:06:34.237Z,65.17
2018-10-19T01:09:02.891Z,73.47
2018-10-19T01:11:31.007Z,65.50
2018-10-19T01:13:59.236Z,66.87
2018-10-19T01:16:27.372Z,64.97
2018-10-19T01:18:55.550Z,73.57
2018-10-19T01:21:24.077Z,78.33
2018-10-19T01:23:52.472Z,86.97
2018-10-19T01:26:21.140Z,88.47
2018-10-19T01:28:49.499Z,83.93
2018-10-19T01:31:17.702Z,106.40
2018-10-19T01:33:46.163Z,88.40
2018-10-19T01:36:14.233Z,89.00
2018-10-19T01:38:42.297Z,75.40
2018-10-19T01:41:10.333Z,93.13
2018-10-19T01:43:38.381Z,84.87
2018-10-19T01:46:06.554Z,72.93
2018-10-19T01:48:34.715Z,77.23
2018-10-19T01:51:02.814Z,74.47
2018-10-19T01:53:31.062Z,79.07
2018-10-19T01:55:59.183Z,98.43
2018-10-19T01:58:27.327Z,97.60
2018-10-19T02:00:55.418Z,91.50
2018-10-19T02:03:23.512Z,98.57
2018-10-19T02:05:51.757Z,99.97
2018-10-19T02:08:20.111Z,113.67
2018-10-19T02:10:48.307Z,104.13
2018-10-19T02:13:16.898Z,124.87
2018-10-19T02:15:45.171Z,92.50
2018-10-19T02:18:13.507Z,76.63
2018-10-19T02:20:41.662Z,92.80
2018-10-19T02:23:09.818Z,90.87
2018-10-19T02:25:38.111Z,82.97
2018-10-19T02:28:06.371Z,98.30
2018-10-19T02:30:34.610Z,104.87
2018-10-19T02:33:02.816Z,93.73
2018-10-19T02:35:31.074Z,89.87
2018-10-19T02:37:59.220Z,86.27
2018-10-19T02:40:27.497Z,80.43
2018-10-19T02:42:55.544Z,75.67
2018-10-19T02:45:23.650Z,82.77
2018-10-19T02:47:51.841Z,81.73
2018-10-19T02:50:19.992Z,130.03
2018-10-19T02:52:48.068Z,96.27
2018-10-19T02:55:16.147Z,86.37
2018-10-19T02:57:44.517Z,86.97
2018-10-19T03:00:12.599Z,96.00
2018-10-19T03:02:41.115Z,105.30
2018-10-19T03:05:09.624Z,118.00
2018-10-19T03:07:37.811Z,124.47
2018-10-19T03:10:06.610Z,88.47
2018-10-19T03:12:34.753Z,89.30
2018-10-19T03:15:03.195Z,84.67
2018-10-19T03:17:31.889Z,82.00
2018-10-19T03:20:00.041Z,91.40
2018-10-19T03:22:28.266Z,99.90
2018-10-19T03:24:57.476Z,99.60
2018-10-19T03:27:25.564Z,94.07
2018-10-19T03:29:53.623Z,105.23
2018-10-19T03:32:21.890Z,102.70
2018-10-19T03:34:50.100Z,96.13
2018-10-19T03:37:18.585Z,96.50
2018-10-19T03:39:46.757Z,116.50
2018-10-19T03:42:14.912Z,139.37
2018-10-19T03:44:42.974Z,128.97
2018-10-19T03:47:11.221Z,110.70
2018-10-19T03:49:39.530Z,104.07
2018-10-19T03:52:07.742Z,92.57
2018-10-19T03:54:36.156Z,110.07
2018-10-19T03:57:04.996Z,100.10
2018-10-19T03:59:33.467Z,94.97
2018-10-19T04:02:02.617Z,99.63
2018-10-19T04:04:30.806Z,121.40
2018-10-19T04:06:59.006Z,119.83
2018-10-19T04:09:27.205Z,126.53
2018-10-19T04:11:55.641Z,110.67
2018-10-19T04:14:55.083Z,106.87
2018-10-19T04:17:23.278Z,103.07
2018-10-19T04:19:51.601Z,114.53
2018-10-19T04:22:20.370Z,113.83
2018-10-19T04:24:49.671Z,113.70
2018-10-19T04:27:18.380Z,104.80
2018-10-19T04:29:46.795Z,116.23
2018-10-19T04:32:15.107Z,113.13
2018-10-19T04:34:43.243Z,102.10
2018-10-19T04:37:11.448Z,101.73
2018-10-19T04:39:39.616Z,96.53
2018-10-19T04:42:08.028Z,104.93
2018-10-19T04:44:36.126Z,112.03
2018-10-19T04:47:04.896Z,122.60
2018-10-19T04:49:33.178Z,153.00
2018-10-19T04:52:01.577Z,138.37
2018-10-19T04:54:29.989Z,104.43
2018-10-19T04:56:58.485Z,119.07
2018-10-19T04:59:27.047Z,116.00
2018-10-19T05:01:55.661Z,102.83
2018-10-19T05:04:24.121Z,111.43
2018-10-19T05:06:52.529Z,148.33
2018-10-19T05:09:20.611Z,149.80
2018-10-19T05:11:48.790Z,173.67
2018-10-19T05:14:16.970Z,130.03
2018-10-19T05:16:45.306Z,124.20
2018-10-19T05:19:13.938Z,115.97
2018-10-19T05:21:42.315Z,111.40
2018-10-19T05:24:10.407Z,133.37
2018-10-19T05:26:38.607Z,124.00
2018-10-19T05:29:06.879Z,140.80
2018-10-19T05:31:35.365Z,145.97
2018-10-19T05:34:03.704Z,163.70
2018-10-19T05:36:31.980Z,130.97
2018-10-19T05:39:02.556Z,128.33
2018-10-19T05:41:30.807Z,133.37
2018-10-19T05:43:59.138Z,139.90
2018-10-19T05:46:27.592Z,170.87
2018-10-19T05:48:55.746Z,202.07
2018-10-19T05:51:24.046Z,240.17
2018-10-19T05:53:52.088Z,255.60
2018-10-19T05:56:20.421Z,276.27
2018-10-19T05:58:48.689Z,262.03
2018-10-19T06:01:17.032Z,279.13
2018-10-19T06:03:45.319Z,268.27
2018-10-19T06:06:13.470Z,282.57
2018-10-19T06:08:41.687Z,254.10
2018-10-19T06:11:10.152Z,235.43
2018-10-19T06:13:38.681Z,267.30
2018-10-19T06:16:06.890Z,294.00
2018-10-19T06:18:35.114Z,225.90
2018-10-19T06:21:03.451Z,206.00
2018-10-19T06:23:31.711Z,192.97
2018-10-19T06:25:59.948Z,210.90
2018-10-19T06:28:28.257Z,240.90
2018-10-19T06:30:56.531Z,231.77
2018-10-19T06:33:24.737Z,215.63
2018-10-19T06:35:53.564Z,217.97
2018-10-19T06:38:21.754Z,200.90
2018-10-19T06:40:50.068Z,206.73
2018-10-19T06:43:18.499Z,200.90
2018-10-19T06:45:46.756Z,174.17
2018-10-19T06:48:14.911Z,125.17
2018-10-19T06:50:43.139Z,106.53
2018-10-19T06:53:11.524Z,104.00
2018-10-19T06:55:39.848Z,87.13
2018-10-19T06:58:07.948Z,83.07
2018-10-19T07:00:36.360Z,82.17
2018-10-19T07:03:05.856Z,77.80
2018-10-19T07:05:34.012Z,97.00
2018-10-19T07:08:02.420Z,74.20
2018-10-19T07:10:30.685Z,76.03
2018-10-19T07:12:59.301Z,77.33
2018-10-19T07:15:28.614Z,66.10
2018-10-19T07:17:56.805Z,66.07
2018-10-19T07:20:24.991Z,59.73
2018-10-19T07:22:53.193Z,60.53
2018-10-19T07:25:21.406Z,56.60
2018-10-19T07:27:49.529Z,59.40
2018-10-19T07:30:17.635Z,60.70
2018-10-19T07:32:46.298Z,55.63
2018-10-19T07:35:14.630Z,59.97
2018-10-19T07:37:42.788Z,60.37
2018-10-19T07:40:11.217Z,60.13
2018-10-19T07:42:39.364Z,57.93
2018-10-19T07:45:07.681Z,59.87
2018-10-19T07:47:36.139Z,58.73
2018-10-19T07:50:05.970Z,57.00
2018-10-19T07:52:34.160Z,56.37
2018-10-19T07:55:02.481Z,57.53
2018-10-19T07:57:40.809Z,62.43
2018-10-19T08:00:09.940Z,58.23
2018-10-19T08:02:38.105Z,63.30
2018-10-19T08:05:07.765Z,58.63
2018-10-19T08:07:36.071Z,60.57
2018-10-19T08:10:06.019Z,54.83
2018-10-19T08:12:34.281Z,58.87
2018-10-19T08:15:02.736Z,49.43
2018-10-19T08:17:31.122Z,55.03
2018-10-19T08:19:59.405Z,54.70
2018-10-19T08:22:27.742Z,55.43
2018-10-19T08:24:56.339Z,58.27
2018-10-19T08:27:24.589Z,59.33
2018-10-19T08:29:52.890Z,61.57
2018-10-19T08:32:21.048Z,60.80
2018-10-19T08:34:49.362Z,60.33
2018-10-19T08:37:17.640Z,59.60
2018-10-19T08:39:46.363Z,58.53
2018-10-19T08:42:14.533Z,59.23
2018-10-19T08:44:42.956Z,64.43
2018-10-19T08:47:11.206Z,60.50
2018-10-19T08:49:39.488Z,64.73
2018-10-19T08:52:07.952Z,61.57
2018-10-19T08:54:36.389Z,61.83
2018-10-19T08:57:05.240Z,62.23
2018-10-19T08:59:33.984Z,62.10
2018-10-19T09:02:02.223Z,60.23
2018-10-19T09:04:30.509Z,60.07
2018-10-19T09:06:58.981Z,59.63
2018-10-19T09:09:27.071Z,57.03
2018-10-19T09:11:55.297Z,63.77
2018-10-19T09:14:40.681Z,60.10
2018-10-19T09:17:09.247Z,62.87
2018-10-19T09:19:37.369Z,60.70
2018-10-19T09:22:09.467Z,60.00
2018-10-19T09:24:37.562Z,62.87
2018-10-19T09:27:09.706Z,67.93
2018-10-19T09:29:37.952Z,55.63
2018-10-19T09:32:06.570Z,58.03
2018-10-19T09:34:35.891Z,56.20
2018-10-19T09:37:05.186Z,57.43
2018-10-19T09:39:33.777Z,59.83
2018-10-19T09:42:01.956Z,65.17
2018-10-19T09:44:31.247Z,56.00
2018-10-19T09:46:59.437Z,63.03
2018-10-19T09:49:27.685Z,56.07
2018-10-19T09:51:55.932Z,55.93
2018-10-19T09:54:24.528Z,67.43
2018-10-19T09:56:52.887Z,61.50
2018-10-19T09:59:24.702Z,59.53
2018-10-19T10:01:53.278Z,62.43
2018-10-19T10:04:21.546Z,59.80
2018-10-19T10:06:50.010Z,61.47
2018-10-19T10:09:18.382Z,64.50
2018-10-19T10:11:46.713Z,58.43
2018-10-19T10:14:15.942Z,59.93
2018-10-19T10:16:44.290Z,58.77
2018-10-19T10:19:12.570Z,60.17
2018-10-19T10:21:40.742Z,57.13
2018-10-19T10:24:08.922Z,61.93
2018-10-19T10:26:37.056Z,57.13
2018-10-19T10:29:05.930Z,61.70
2018-10-19T10:31:34.384Z,63.43
2018-10-19T10:34:02.593Z,59.43
2018-10-19T10:36:31.067Z,60.47
2018-10-19T10:38:59.280Z,64.60
2018-10-19T10:41:27.548Z,61.13
2018-10-19T10:43:55.797Z,63.70
2018-10-19T10:46:24.084Z,59.27
2018-10-19T10:48:52.371Z,62.50
2018-10-19T10:51:20.695Z,57.77
2018-10-19T10:53:48.844Z,61.23
2018-10-19T10:56:17.152Z,64.63
2018-10-19T10:58:45.381Z,65.23
2018-10-19T11:01:14.126Z,69.53
2018-10-19T11:03:42.227Z,64.83
2018-10-19T11:06:10.383Z,69.33
2018-10-19T11:08:38.906Z,75.23
2018-10-19T11:11:09.948Z,73.73
2018-10-19T11:13:39.038Z,72.53
2018-10-19T11:16:08.223Z,70.33
2018-10-19T11:18:36.409Z,81.53
2018-10-19T11:21:05.038Z,71.80
2018-10-19T11:23:33.704Z,72.43
2018-10-19T11:26:02.028Z,75.07
2018-10-19T11:28:31.030Z,69.20
2018-10-19T11:30:59.796Z,72.83
2018-10-19T11:33:28.354Z,73.30
2018-10-19T11:35:56.707Z,76.07
2018-10-19T11:38:25.130Z,75.53
2018-10-19T11:40:53.490Z,67.13
2018-10-19T11:43:22.175Z,82.43
2018-10-19T11:45:50.432Z,72.97
2018-10-19T11:48:18.774Z,72.00
2018-10-19T11:50:47.155Z,75.60
2018-10-19T11:53:15.476Z,76.83
2018-10-19T11:55:43.872Z,68.70
2018-10-19T11:58:12.193Z,69.93
2018-10-19T12:00:40.611Z,69.73
2018-10-19T12:03:09.136Z,71.63
2018-10-19T12:05:37.530Z,68.93
2018-10-19T12:08:05.978Z,69.60
2018-10-19T12:10:34.418Z,73.97
2018-10-19T12:13:02.551Z,70.53
2018-10-19T12:15:31.521Z,76.43
2018-10-19T12:17:59.617Z,67.57
2018-10-19T12:20:28.041Z,69.33
2018-10-19T12:22:56.479Z,70.33
2018-10-19T12:25:25.141Z,87.93
2018-10-19T12:27:53.913Z,66.23
2018-10-19T12:30:22.269Z,66.03
2018-10-19T12:32:50.512Z,69.47
2018-10-19T12:35:18.867Z,69.57
2018-10-19T12:37:47.078Z,68.87
2018-10-19T12:40:16.018Z,67.13
2018-10-19T12:42:45.181Z,72.03
2018-10-19T12:46:35.479Z,71.07
2018-10-19T12:49:03.997Z,71.77
2018-10-19T12:51:32.302Z,65.00
2018-10-19T12:54:00.468Z,66.63
2018-10-19T12:56:28.709Z,61.97
2018-10-19T12:58:57.036Z,62.50
2018-10-19T13:01:26.627Z,65.70
2018-10-19T13:03:55.028Z,69.93
2018-10-19T13:06:23.389Z,64.93
2018-10-19T13:08:52.029Z,65.30
2018-10-19T13:11:20.510Z,60.40
2018-10-19T13:13:49.150Z,63.50
2018-10-19T13:16:17.855Z,64.27
2018-10-19T13:18:46.108Z,68.07
2018-10-19T13:21:14.592Z,67.07
2018-10-19T13:23:42.835Z,62.57
2018-10-19T13:26:11.988Z,61.27
2018-10-19T13:28:40.141Z,59.97
2018-10-19T13:31:08.446Z,65.93
2018-10-19T13:33:36.933Z,64.37
2018-10-19T13:36:06.007Z,63.40
2018-10-19T13:38:34.241Z,63.27
2018-10-19T13:41:02.418Z,61.43
2018-10-19T13:43:30.762Z,65.50
2018-10-19T13:45:58.976Z,60.97
2018-10-19T13:48:27.348Z,59.20
2018-10-19T13:50:55.623Z,62.20
2018-10-19T13:53:23.974Z,58.83
2018-10-19T13:55:52.493Z,60.57
2018-10-19T13:58:20.904Z,61.50
2018-10-19T14:00:49.111Z,57.33
2018-10-19T14:03:17.979Z,58.93
2018-10-19T14:05:46.862Z,60.07
2018-10-19T14:08:15.339Z,58.53
2018-10-19T14:10:43.726Z,54.57
2018-10-19T14:13:12.025Z,59.07
2018-10-19T14:15:40.224Z,63.70
2018-10-19T14:18:08.606Z,60.03
2018-10-19T14:20:36.834Z,62.60
2018-10-19T14:23:06.176Z,54.27
2018-10-19T14:25:34.360Z,59.43
2018-10-19T14:28:02.615Z,56.53
2018-10-19T14:30:31.387Z,61.23
2018-10-19T14:32:59.584Z,61.83
2018-10-19T14:35:27.610Z,59.27
2018-10-19T14:37:56.082Z,60.47
2018-10-19T14:40:24.246Z,61.47
2018-10-19T14:42:53.101Z,59.53
2018-10-19T14:45:21.300Z,65.10
2018-10-19T14:47:49.542Z,57.00
2018-10-19T14:50:18.328Z,59.90
2018-10-19T14:52:46.499Z,60.30
2018-10-19T14:55:16.228Z,56.07
2018-10-19T14:57:44.409Z,63.77
2018-10-19T15:00:13.964Z,59.80
2018-10-19T15:02:42.333Z,59.20
2018-10-19T15:05:12.333Z,61.03
2018-10-19T15:07:40.400Z,58.33
2018-10-19T15:10:12.776Z,59.93
2018-10-19T15:12:41.123Z,60.40
2018-10-19T15:15:12.453Z,57.70
2018-10-19T15:17:40.614Z,62.23
2018-10-19T15:20:09.115Z,57.57
2018-10-19T15:22:37.487Z,56.23
2018-10-19T15:25:07.096Z,56.97
2018-10-19T15:27:35.984Z,60.07
2018-10-19T15:30:05.168Z,58.47
2018-10-19T15:32:33.557Z,57.30
2018-10-19T15:35:01.716Z,62.83
2018-10-19T15:37:29.744Z,58.07
2018-10-19T15:39:58.094Z,60.70
2018-10-19T15:42:26.149Z,61.67
2018-10-19T15:44:54.562Z,57.80
2018-10-19T15:47:26.340Z,60.40
2018-10-19T15:49:56.131Z,61.83
2018-10-19T15:52:24.370Z,64.07
2018-10-19T15:54:53.600Z,59.83
2018-10-19T15:57:22.049Z,61.20
2018-10-19T15:59:50.296Z,60.40
2018-10-19T16:02:18.871Z,57.73
2018-10-19T16:04:48.181Z,57.87
2018-10-19T16:07:16.711Z,60.50
2018-10-19T16:09:45.199Z,56.40
2018-10-19T16:12:13.354Z,62.57
2018-10-19T16:14:41.450Z,62.70
2018-10-19T16:17:09.673Z,61.13
2018-10-19T16:19:37.819Z,64.50
2018-10-19T16:22:06.372Z,64.17
2018-10-19T16:24:34.499Z,66.77
2018-10-19T16:27:02.757Z,67.90
2018-10-19T16:29:30.835Z,65.70
2018-10-19T16:31:58.847Z,76.00
2018-10-19T16:34:27.230Z,77.87
2018-10-19T16:36:55.486Z,78.13
2018-10-19T16:39:23.602Z,68.97
2018-10-19T16:41:51.753Z,76.63
2018-10-19T16:44:20.042Z,74.13
2018-10-19T16:46:49.330Z,78.37
2018-10-19T16:49:17.401Z,73.60
2018-10-19T16:51:45.620Z,73.60
2018-10-19T16:54:13.700Z,73.03
2018-10-19T16:56:41.701Z,74.40
2018-10-19T16:59:09.969Z,72.20
2018-10-19T17:01:38.468Z,73.87
2018-10-19T17:04:06.924Z,74.77
2018-10-19T17:06:35.176Z,80.53
2018-10-19T17:09:07.429Z,77.17
2018-10-19T17:11:35.455Z,81.67
2018-10-19T17:14:03.922Z,83.70
2018-10-19T17:16:32.070Z,81.53
2018-10-19T17:19:00.182Z,78.87
2018-10-19T17:21:28.642Z,74.70
2018-10-19T17:23:57.461Z,75.40
2018-10-19T17:26:25.531Z,78.97
2018-10-19T17:28:53.930Z,78.57
2018-10-19T17:31:22.243Z,80.53
2018-10-19T17:33:50.548Z,75.30
2018-10-19T17:36:18.599Z,83.07
2018-10-19T17:38:46.974Z,76.73
2018-10-19T17:41:15.259Z,82.80
2018-10-19T17:43:43.600Z,87.37
2018-10-19T17:46:11.692Z,87.70
2018-10-19T17:48:40.050Z,84.53
2018-10-19T17:51:08.335Z,88.37
2018-10-19T17:53:36.494Z,90.33
2018-10-19T17:56:05.211Z,78.50
2018-10-19T17:58:33.695Z,83.87
2018-10-19T18:01:01.871Z,92.63
2018-10-19T18:03:30.649Z,90.60
2018-10-19T18:05:59.006Z,83.90
2018-10-19T18:08:27.211Z,86.83
2018-10-19T18:10:55.562Z,92.27
2018-10-19T18:13:24.476Z,91.60
2018-10-19T18:15:52.738Z,82.17
2018-10-19T18:18:20.999Z,90.27
2018-10-19T18:20:49.216Z,90.83
2018-10-19T18:23:17.805Z,90.23
2018-10-19T18:25:46.456Z,84.33
2018-10-19T18:28:14.604Z,84.97
2018-10-19T18:30:42.932Z,93.67
2018-10-19T18:33:10.990Z,84.43
2018-10-19T18:35:39.366Z,94.27
2018-10-19T18:38:07.475Z,95.33
2018-10-19T18:40:35.572Z,92.10
2018-10-19T18:43:04.119Z,85.73
2018-10-19T18:45:32.335Z,89.27
2018-10-19T18:48:00.993Z,89.43
2018-10-19T18:50:29.318Z,90.00
2018-10-19T18:52:57.477Z,90.27
2018-10-19T18:55:25.785Z,100.40
2018-10-19T18:57:54.444Z,102.90
2018-10-19T19:00:22.579Z,96.80
2018-10-19T19:02:50.751Z,92.67
2018-10-19T19:05:18.875Z,100.50
2018-10-19T19:07:47.202Z,98.53
2018-10-19T19:10:15.355Z,100.87
2018-10-19T19:12:43.403Z,100.03
2018-10-19T19:15:11.854Z,90.17
2018-10-19T19:17:40.135Z,89.53
2018-10-19T19:20:14.512Z,96.73
2018-10-19T19:22:43.262Z,97.90
2018-10-19T19:25:17.060Z,92.77
2018-10-19T19:27:45.276Z,100.33
2018-10-19T19:30:13.549Z,103.90
2018-10-19T19:32:47.333Z,104.00
2018-10-19T19:35:15.691Z,102.33
2018-10-19T19:37:44.497Z,112.83
2018-10-19T19:40:13.533Z,118.60
2018-10-19T19:42:46.385Z,104.13
2018-10-19T19:45:15.139Z,111.90
2018-10-19T19:47:49.072Z,103.60
2018-10-19T19:50:17.320Z,95.07
2018-10-19T19:52:45.454Z,106.73
2018-10-19T19:55:13.772Z,95.50
2018-10-19T19:57:42.014Z,94.73
2018-10-19T20:00:10.501Z,109.17
2018-10-19T20:02:39.092Z,98.90
2018-10-19T20:05:07.789Z,93.67
2018-10-19T20:07:36.933Z,102.13
2018-10-19T20:10:06.723Z,98.47
2018-10-19T20:12:35.377Z,100.23
2018-10-19T20:15:05.006Z,101.87
2018-10-19T20:17:33.275Z,109.20
2018-10-19T20:20:01.824Z,118.60
2018-10-19T20:22:30.225Z,115.43
2018-10-19T20:24:58.477Z,115.03
2018-10-19T20:27:26.775Z,116.70
2018-10-19T20:29:55.432Z,109.90
2018-10-19T20:32:23.971Z,108.63
2018-10-19T20:34:52.256Z,128.77
2018-10-19T20:37:21.012Z,119.20
2018-10-19T20:39:49.415Z,116.27
2018-10-19T20:42:17.719Z,105.77
2018-10-19T20:44:45.901Z,104.30
2018-10-19T20:47:14.372Z,103.10
2018-10-19T20:49:43.004Z,123.60
2018-10-19T20:52:11.478Z,123.77
2018-10-19T20:54:40.553Z,129.83
2018-10-19T20:57:08.565Z,141.30
2018-10-19T20:59:36.955Z,136.03
2018-10-19T21:02:05.430Z,114.93
2018-10-19T21:04:33.928Z,132.93
2018-10-19T21:07:03.338Z,157.67
2018-10-19T21:09:31.550Z,152.50
2018-10-19T21:12:00.976Z,143.47
2018-10-19T21:14:29.280Z,145.23
2018-10-19T21:16:57.512Z,136.73
2018-10-19T21:19:26.591Z,146.90
2018-10-19T21:21:55.592Z,139.87
2018-10-19T21:24:24.287Z,114.13
2018-10-19T21:26:52.809Z,132.20
2018-10-19T21:29:21.000Z,129.60
2018-10-19T21:31:49.803Z,117.57
2018-10-19T21:34:17.936Z,121.80
2018-10-19T21:36:46.095Z,119.33
2018-10-19T21:39:14.268Z,124.50
2018-10-19T21:41:42.636Z,128.63
2018-10-19T21:44:10.983Z,144.80
2018-10-19T21:46:39.375Z,162.50
2018-10-19T21:49:08.060Z,142.77
2018-10-19T21:51:36.406Z,139.80
2018-10-19T21:54:05.226Z,147.43
2018-10-19T21:56:33.537Z,146.23
2018-10-19T21:59:02.125Z,133.90
2018-10-19T22:01:30.389Z,147.73
2018-10-19T22:03:58.496Z,139.63
2018-10-19T22:06:26.970Z,131.33
2018-10-19T22:08:55.191Z,140.27
2018-10-19T22:11:23.501Z,150.60
2018-10-19T22:13:51.706Z,145.40
2018-10-19T22:16:19.825Z,165.67
2018-10-19T22:18:47.926Z,164.03
2018-10-19T22:21:16.253Z,155.70
2018-10-19T22:23:44.450Z,159.70
2018-10-19T22:26:12.809Z,161.40
2018-10-19T22:28:40.896Z,142.67
2018-10-19T22:31:09.204Z,150.83
2018-10-19T22:33:37.493Z,160.27
2018-10-19T22:36:05.951Z,146.97
2018-10-19T22:38:35.458Z,145.67
2018-10-19T22:41:04.567Z,180.87
2018-10-19T22:43:32.700Z,170.23
2018-10-19T22:46:00.804Z,138.90
2018-10-19T22:48:29.408Z,142.77
2018-10-19T22:50:57.605Z,142.57
2018-10-19T22:53:25.719Z,139.77
2018-10-19T22:55:53.791Z,138.97
2018-10-19T22:58:21.792Z,141.50
2018-10-19T23:00:49.971Z,142.03
2018-10-19T23:03:18.009Z,194.20
2018-10-19T23:05:46.080Z,164.23
2018-10-19T23:08:14.240Z,156.47
2018-10-19T23:10:42.572Z,145.63
2018-10-19T23:13:10.751Z,145.80
2018-10-19T23:15:39.278Z,151.50
2018-10-19T23:18:07.698Z,137.33
2018-10-19T23:20:35.733Z,149.10
2018-10-19T23:23:04.223Z,147.20
2018-10-19T23:25:32.247Z,128.83
2018-10-19T23:28:00.349Z,142.63
2018-10-19T23:30:28.436Z,124.93
2018-10-19T23:32:56.627Z,145.90
2018-10-19T23:35:24.651Z,175.97
2018-10-19T23:37:52.701Z,173.40
2018-10-19T23:40:20.738Z,173.37
2018-10-19T23:42:49.034Z,157.60
2018-10-19T23:45:17.186Z,147.60
2018-10-19T23:47:45.343Z,161.53
2018-10-19T23:50:13.715Z,154.90
2018-10-19T23:52:42.174Z,158.17
2018-10-19T23:55:10.464Z,194.20
2018-10-19T23:57:38.653Z,160.70
